Αρχική σελίδα
METAR-TAF:

METAR-TAF

Αεροδρόμια :

Weno, Μικρονησία

γεωγραφικό πλάτος: 07-28N, γεωγραφικό μήκος: 151-51E, υψόμετρο: 3 μ

Παρών καιρός

Η αναφορά έγινε 36 λεπτά πριν, στις 00:52 UTC
Άνεμος 7 kt από BA
Θερμοκρασία 30°C
Υγρασία 79%
Πίεση 1011 hPa
Ορατότητα: 24.1 χλμ
Λίγα νέφη σε ύψος 1400 πόδια
Αρκετά νέφη σε ύψος 12000 πόδια
Νεφοσκεπής σε ύψος 28000 πόδια

METAR: PTKK 120052Z 04007KT 15SM FEW014 BKN120 OVC280 30/26 A2984 RMK SLP106 T03000262

Χρόνος: 11:28 (01:28 UTC)

Πρόγνωση Καιρού

Η αναφορά έγινε 1 ώρα και 54 λεπτά πριν, στις 23:34 UTC
Η πρόγνωση ισχύει από τις 12 στις 00 UTC έως τις 12 στις 24 UTC
Άνεμος 9 kt από BA
Ορατότητα: 10 χλμ
Λίγα νέφη σε ύψος 1500 πόδια
Διάσπαρτα νέφη σε ύψος 12000 πόδια
Όμβροι σε κοντινή απόσταση

TAF: PTKK 112334Z 1200/1224 05009KT P6SM VCSH FEW015 SCT120

Μετεωρολογικές αναφορές και προγνώσεις για περισσότερα από 4000 αεροδρόμια (δελτία METAR και TAF).

Οι διαθέσιμοι σταθμοί απεικονίζονται στο χάρτη με κίτρινες και κόκκινες κουκκίδες.

Μετακινήστε το ποντίκι πάνω από τις κουκκίδες για να δείτε το όνομα του σταθμού.

Στη συνέχεια, κάντε κλικ για να δείτε τις μετεωρολογικές αναφορές και τις προγνώσεις καιρού.

Για να αλλάξετε το χάρτη: κάντε κλικ στα πράσινα κουμπιά με τον μαύρο σταυρό για να ζουμάρετε, στο πράσινο κουμπί με την παύλα για να αφαιρέσετε το ζουμ ή στα πράσινα βέλη για να αντιπαραβάλλετε χάρτες.


METAR-TAF: